MRIT2: Lake Meredith

                                SHEF ID:       MRIT2     Lake Meredith
STATION TYPE: RESERVOIR
Flood Pool: Bottom = 2941.30, Top = 2965.00

PRECIP ELEVATION STORAGE INFLOW RELEASE WIND-DIRWIND-SPEED
in ft ac-ft cfs cfs deg mph
Ccp-Rev Ccp-Rev Ccp-Rev Rev-Regi Rev-Regi Ccp-Rev Ccp-Rev
(America/Chicago)
07/17 00:00 ---- 2892.43 268520 66 0 190.00 7.00
07/17 01:00 ---- 2892.43 268520 0 0 340.00 9.00
07/17 02:00 ---- 2892.40 268282 41 0 11.00 6.00
07/17 03:00 ---- 2892.40 268282 41 0 71.00 8.00
07/17 04:00 ---- 2892.37 268044 41 0 67.00 6.00
07/17 05:00 ---- 2892.42 268441 41 0 322.00 4.00
07/17 06:00 ---- 2892.40 268282 97 0 355.00 10.00
07/17 07:00 ---- 2892.40 268282 78 0 44.00 3.00
07/17 08:00 ---- 2892.42 268441 78 0 ---- ----
07/17 09:00 ---- 2892.43 268520 185 0 ---- ----
07/17 10:00 ---- 2892.39 268203 217 0 ---- ----
07/17 11:00 ---- 2892.41 268361 161 0 ---- ----
07/17 12:00 ---- 2892.42 268441 317 0 ---- ----
07/17 13:00 ---- 2892.40 268282 317 0 ---- ----
07/17 14:00 ---- 2892.45 268679 285 0 ---- ----
07/17 15:00 ---- 2892.45 268679 253 0 ---- ----
07/17 16:00 ---- 2892.47 268838 253 0 ---- ----
07/17 17:00 ---- 2892.46 268758 75 0 ---- ----
07/17 18:00 ---- 2892.46 268758 75 0 ---- ----
07/17 19:00 ---- 2892.46 268758 0 0 ---- ----
07/17 20:00 ---- 2892.45 268679 0 0 ---- ----
07/17 21:00 ---- 2892.45 268679 0 0 ---- ----
07/17 22:00 ---- 2892.45 268679 0 0 ---- ----
07/17 23:00 ---- ---- ---- ---- ---- ---- ----
Data processed at Fri 18Jul2025 04:43 GMT

Parsing this webpage?

Checkout our new Data API! CWMSDataAPI (CDA)

Timeseries IDs (TSIDs)

TSIDs used from left to right in the data table
MERE.Precip-Inc.Total.1Hour.1Hour.Ccp-Rev
MERE.Elev.Inst.1Hour.0.Ccp-Rev
MERE.Stor.Inst.1Hour.0.Ccp-Rev
MERE.Flow-Res In.Ave.1Hour.1Hour.Rev-Regi-Computed
MERE.Flow-Res Out.Ave.1Hour.1Hour.Rev-Regi-Flowgroup
MERE.Dir-Wind.Inst.1Hour.0.Ccp-Rev
MERE.Speed-Wind.Inst.1Hour.0.Ccp-Rev

                            

All information presented herein is the property of the government of the United States of America and may be revised or deleted at any time without prior notice. Dissemination of this information without the expressed written consent of the Public Affairs Office, Tulsa District U.S. Army Corps of Engineers is strictly prohibited. These data are gathered electronically and, as presented, have NOT undergone any form of quality control. These data are NOT guaranteed to be valid or correct.